sensor_id;sensor_type;location;lat;lon;timestamp;P1;durP1;ratioP1;P2;durP2;ratioP2
48777;SDS011;34578;0.000;0.000;2023-04-25T00:02:35;1.53;;;1.07;;
48777;SDS011;34578;0.000;0.000;2023-04-25T00:07:35;2.20;;;1.10;;
48777;SDS011;34578;0.000;0.000;2023-04-25T00:12:36;1.63;;;1.40;;
48777;SDS011;34578;0.000;0.000;2023-04-25T00:17:36;2.40;;;1.70;;
48777;SDS011;34578;0.000;0.000;2023-04-25T00:22:38;1.10;;;1.00;;
48777;SDS011;34578;0.000;0.000;2023-04-25T00:27:38;2.22;;;1.25;;
48777;SDS011;34578;0.000;0.000;2023-04-25T00:32:39;1.40;;;1.15;;
48777;SDS011;34578;0.000;0.000;2023-04-25T00:37:39;1.73;;;1.00;;
48777;SDS011;34578;0.000;0.000;2023-04-25T00:42:40;2.83;;;1.20;;
48777;SDS011;34578;0.000;0.000;2023-04-25T00:47:41;2.80;;;1.20;;
48777;SDS011;34578;0.000;0.000;2023-04-25T00:52:44;1.40;;;0.90;;
48777;SDS011;34578;0.000;0.000;2023-04-25T00:57:45;2.53;;;0.95;;
48777;SDS011;34578;0.000;0.000;2023-04-25T01:02:46;2.00;;;1.35;;
48777;SDS011;34578;0.000;0.000;2023-04-25T01:07:47;2.17;;;1.67;;
48777;SDS011;34578;0.000;0.000;2023-04-25T01:12:47;1.97;;;0.93;;
48777;SDS011;34578;0.000;0.000;2023-04-25T01:17:48;2.00;;;1.02;;
48777;SDS011;34578;0.000;0.000;2023-04-25T01:22:50;3.05;;;1.90;;
48777;SDS011;34578;0.000;0.000;2023-04-25T01:27:51;2.05;;;1.13;;
48777;SDS011;34578;0.000;0.000;2023-04-25T01:32:52;1.50;;;1.40;;
48777;SDS011;34578;0.000;0.000;2023-04-25T01:37:55;1.10;;;0.93;;
48777;SDS011;34578;0.000;0.000;2023-04-25T01:42:55;1.40;;;0.90;;
48777;SDS011;34578;0.000;0.000;2023-04-25T01:47:56;2.45;;;1.10;;
48777;SDS011;34578;0.000;0.000;2023-04-25T01:52:59;3.17;;;1.48;;
48777;SDS011;34578;0.000;0.000;2023-04-25T01:58:00;2.10;;;1.30;;
48777;SDS011;34578;0.000;0.000;2023-04-25T02:03:22;2.03;;;1.25;;
48777;SDS011;34578;0.000;0.000;2023-04-25T02:08:22;1.05;;;0.82;;
48777;SDS011;34578;0.000;0.000;2023-04-25T02:13:23;1.35;;;1.02;;
48777;SDS011;34578;0.000;0.000;2023-04-25T02:18:36;1.00;;;0.88;;
48777;SDS011;34578;0.000;0.000;2023-04-25T02:23:40;1.60;;;1.10;;
48777;SDS011;34578;0.000;0.000;2023-04-25T02:28:40;2.93;;;1.23;;
48777;SDS011;34578;0.000;0.000;2023-04-25T02:33:41;3.92;;;1.02;;
48777;SDS011;34578;0.000;0.000;2023-04-25T02:38:41;1.60;;;1.20;;
48777;SDS011;34578;0.000;0.000;2023-04-25T02:43:42;3.90;;;1.20;;
48777;SDS011;34578;0.000;0.000;2023-04-25T02:48:42;1.23;;;0.80;;
48777;SDS011;34578;0.000;0.000;2023-04-25T02:53:42;1.90;;;1.20;;
48777;SDS011;34578;0.000;0.000;2023-04-25T02:58:44;2.58;;;1.00;;
48777;SDS011;34578;0.000;0.000;2023-04-25T03:03:45;1.40;;;0.85;;
48777;SDS011;34578;0.000;0.000;2023-04-25T03:08:45;1.58;;;1.27;;
48777;SDS011;34578;0.000;0.000;2023-04-25T03:13:46;1.47;;;1.37;;
48777;SDS011;34578;0.000;0.000;2023-04-25T03:18:46;1.38;;;0.90;;
48777;SDS011;34578;0.000;0.000;2023-04-25T03:23:46;1.47;;;0.97;;
48777;SDS011;34578;0.000;0.000;2023-04-25T03:28:47;1.90;;;1.00;;
48777;SDS011;34578;0.000;0.000;2023-04-25T03:33:47;4.75;;;1.65;;
48777;SDS011;34578;0.000;0.000;2023-04-25T03:38:48;2.08;;;1.17;;
48777;SDS011;34578;0.000;0.000;2023-04-25T03:43:50;2.05;;;1.00;;
48777;SDS011;34578;0.000;0.000;2023-04-25T03:48:51;1.95;;;1.38;;
48777;SDS011;34578;0.000;0.000;2023-04-25T03:53:56;2.47;;;1.30;;
48777;SDS011;34578;0.000;0.000;2023-04-25T03:59:16;3.28;;;1.30;;
48777;SDS011;34578;0.000;0.000;2023-04-25T04:04:17;1.98;;;1.05;;
48777;SDS011;34578;0.000;0.000;2023-04-25T04:09:18;2.25;;;1.13;;
48777;SDS011;34578;0.000;0.000;2023-04-25T04:14:20;2.80;;;1.40;;
48777;SDS011;34578;0.000;0.000;2023-04-25T04:19:23;2.22;;;0.82;;
48777;SDS011;34578;0.000;0.000;2023-04-25T04:24:43;3.42;;;1.42;;
48777;SDS011;34578;0.000;0.000;2023-04-25T04:29:48;3.05;;;1.90;;
48777;SDS011;34578;0.000;0.000;2023-04-25T04:34:55;2.55;;;1.10;;
48777;SDS011;34578;0.000;0.000;2023-04-25T04:39:56;1.85;;;1.13;;
48777;SDS011;34578;0.000;0.000;2023-04-25T04:45:17;1.90;;;1.48;;
48777;SDS011;34578;0.000;0.000;2023-04-25T04:50:30;1.73;;;1.42;;
48777;SDS011;34578;0.000;0.000;2023-04-25T04:55:49;2.35;;;1.10;;
48777;SDS011;34578;0.000;0.000;2023-04-25T05:01:10;1.38;;;1.20;;
48777;SDS011;34578;0.000;0.000;2023-04-25T05:06:29;5.25;;;1.30;;
48777;SDS011;34578;0.000;0.000;2023-04-25T05:11:48;1.20;;;1.10;;
48777;SDS011;34578;0.000;0.000;2023-04-25T05:17:00;3.45;;;1.27;;
48777;SDS011;34578;0.000;0.000;2023-04-25T05:22:15;9.07;;;1.50;;
48777;SDS011;34578;0.000;0.000;2023-04-25T05:27:33;9.40;;;1.98;;
48777;SDS011;34578;0.000;0.000;2023-04-25T05:38:01;2.75;;;1.40;;
48777;SDS011;34578;0.000;0.000;2023-04-25T05:43:22;2.63;;;1.40;;
48777;SDS011;34578;0.000;0.000;2023-04-25T05:48:31;2.25;;;1.40;;
48777;SDS011;34578;0.000;0.000;2023-04-25T05:54:04;2.25;;;1.25;;
48777;SDS011;34578;0.000;0.000;2023-04-25T05:59:07;3.13;;;1.20;;
48777;SDS011;34578;0.000;0.000;2023-04-25T06:04:07;3.13;;;1.20;;
48777;SDS011;34578;0.000;0.000;2023-04-25T06:09:08;2.33;;;1.10;;
48777;SDS011;34578;0.000;0.000;2023-04-25T06:14:08;1.70;;;1.20;;
48777;SDS011;34578;0.000;0.000;2023-04-25T06:19:13;1.80;;;1.30;;
48777;SDS011;34578;0.000;0.000;2023-04-25T06:24:14;2.78;;;1.15;;
48777;SDS011;34578;0.000;0.000;2023-04-25T06:29:14;1.98;;;1.00;;
48777;SDS011;34578;0.000;0.000;2023-04-25T06:34:14;2.38;;;1.20;;
48777;SDS011;34578;0.000;0.000;2023-04-25T06:39:15;2.78;;;1.30;;
48777;SDS011;34578;0.000;0.000;2023-04-25T06:44:16;2.08;;;1.30;;
48777;SDS011;34578;0.000;0.000;2023-04-25T06:49:26;2.88;;;1.10;;
48777;SDS011;34578;0.000;0.000;2023-04-25T06:54:27;2.20;;;1.10;;
48777;SDS011;34578;0.000;0.000;2023-04-25T06:59:35;1.67;;;1.02;;
48777;SDS011;34578;0.000;0.000;2023-04-25T07:04:38;3.85;;;1.08;;
48777;SDS011;34578;0.000;0.000;2023-04-25T07:09:40;3.40;;;0.95;;
48777;SDS011;34578;0.000;0.000;2023-04-25T07:14:40;1.57;;;0.90;;
48777;SDS011;34578;0.000;0.000;2023-04-25T07:19:42;1.20;;;0.90;;
48777;SDS011;34578;0.000;0.000;2023-04-25T07:24:43;1.67;;;1.10;;
48777;SDS011;34578;0.000;0.000;2023-04-25T07:29:47;3.25;;;0.98;;
48777;SDS011;34578;0.000;0.000;2023-04-25T07:34:48;1.30;;;1.00;;
48777;SDS011;34578;0.000;0.000;2023-04-25T07:39:48;1.63;;;0.82;;
48777;SDS011;34578;0.000;0.000;2023-04-25T07:44:49;2.33;;;1.20;;
48777;SDS011;34578;0.000;0.000;2023-04-25T07:49:50;1.38;;;1.10;;
48777;SDS011;34578;0.000;0.000;2023-04-25T07:54:50;2.85;;;1.13;;
48777;SDS011;34578;0.000;0.000;2023-04-25T07:59:56;1.87;;;0.90;;
48777;SDS011;34578;0.000;0.000;2023-04-25T08:04:57;3.03;;;1.02;;
48777;SDS011;34578;0.000;0.000;2023-04-25T08:09:57;3.17;;;1.03;;
48777;SDS011;34578;0.000;0.000;2023-04-25T08:15:05;1.98;;;1.00;;
48777;SDS011;34578;0.000;0.000;2023-04-25T08:20:09;1.55;;;0.75;;
48777;SDS011;34578;0.000;0.000;2023-04-25T08:25:11;1.05;;;0.60;;
48777;SDS011;34578;0.000;0.000;2023-04-25T08:30:12;1.13;;;0.70;;
48777;SDS011;34578;0.000;0.000;2023-04-25T08:35:15;2.75;;;1.02;;
48777;SDS011;34578;0.000;0.000;2023-04-25T08:40:17;1.00;;;0.90;;
48777;SDS011;34578;0.000;0.000;2023-04-25T08:45:31;1.05;;;0.75;;
48777;SDS011;34578;0.000;0.000;2023-04-25T08:50:32;1.52;;;0.80;;
48777;SDS011;34578;0.000;0.000;2023-04-25T08:55:37;1.58;;;1.17;;
48777;SDS011;34578;0.000;0.000;2023-04-25T09:00:39;0.88;;;0.80;;
48777;SDS011;34578;0.000;0.000;2023-04-25T09:05:40;2.88;;;0.82;;
48777;SDS011;34578;0.000;0.000;2023-04-25T09:10:42;0.70;;;0.70;;
48777;SDS011;34578;0.000;0.000;2023-04-25T09:15:53;1.25;;;0.90;;
48777;SDS011;34578;0.000;0.000;2023-04-25T09:21:09;2.22;;;0.80;;
48777;SDS011;34578;0.000;0.000;2023-04-25T09:26:15;1.00;;;0.75;;
48777;SDS011;34578;0.000;0.000;2023-04-25T09:31:22;0.88;;;0.75;;
48777;SDS011;34578;0.000;0.000;2023-04-25T09:36:29;0.65;;;0.65;;
48777;SDS011;34578;0.000;0.000;2023-04-25T09:41:42;0.80;;;0.70;;
48777;SDS011;34578;0.000;0.000;2023-04-25T09:46:42;0.85;;;0.57;;
48777;SDS011;34578;0.000;0.000;2023-04-25T09:51:55;1.17;;;0.80;;
48777;SDS011;34578;0.000;0.000;2023-04-25T09:57:18;0.98;;;0.90;;
48777;SDS011;34578;0.000;0.000;2023-04-25T10:02:25;1.42;;;0.90;;
48777;SDS011;34578;0.000;0.000;2023-04-25T10:07:29;0.52;;;0.52;;
48777;SDS011;34578;0.000;0.000;2023-04-25T10:12:34;1.90;;;0.90;;
48777;SDS011;34578;0.000;0.000;2023-04-25T10:17:35;0.85;;;0.65;;
48777;SDS011;34578;0.000;0.000;2023-04-25T10:22:39;0.93;;;0.80;;
48777;SDS011;34578;0.000;0.000;2023-04-25T10:27:42;0.70;;;0.70;;
48777;SDS011;34578;0.000;0.000;2023-04-25T10:32:44;1.00;;;0.52;;
48777;SDS011;34578;0.000;0.000;2023-04-25T10:48:43;0.77;;;0.77;;
48777;SDS011;34578;0.000;0.000;2023-04-25T10:53:47;0.70;;;0.50;;
48777;SDS011;34578;0.000;0.000;2023-04-25T10:59:02;0.75;;;0.70;;
48777;SDS011;34578;0.000;0.000;2023-04-25T11:04:24;0.50;;;0.45;;
48777;SDS011;34578;0.000;0.000;2023-04-25T11:09:30;0.90;;;0.85;;
48777;SDS011;34578;0.000;0.000;2023-04-25T11:14:33;0.47;;;0.40;;
48777;SDS011;34578;0.000;0.000;2023-04-25T11:19:33;0.93;;;0.60;;
48777;SDS011;34578;0.000;0.000;2023-04-25T11:24:34;1.50;;;1.00;;
48777;SDS011;34578;0.000;0.000;2023-04-25T11:29:35;0.85;;;0.68;;
48777;SDS011;34578;0.000;0.000;2023-04-25T11:34:36;0.60;;;0.60;;
48777;SDS011;34578;0.000;0.000;2023-04-25T11:39:36;3.97;;;0.50;;
48777;SDS011;34578;0.000;0.000;2023-04-25T11:44:40;0.97;;;0.70;;
48777;SDS011;34578;0.000;0.000;2023-04-25T11:49:40;0.80;;;0.60;;
48777;SDS011;34578;0.000;0.000;2023-04-25T11:54:41;0.73;;;0.50;;
48777;SDS011;34578;0.000;0.000;2023-04-25T11:59:46;2.33;;;0.93;;
48777;SDS011;34578;0.000;0.000;2023-04-25T12:04:47;3.80;;;1.00;;
48777;SDS011;34578;0.000;0.000;2023-04-25T12:09:51;3.33;;;0.83;;
48777;SDS011;34578;0.000;0.000;2023-04-25T12:14:52;7.80;;;1.35;;
48777;SDS011;34578;0.000;0.000;2023-04-25T12:19:52;5.07;;;1.23;;
48777;SDS011;34578;0.000;0.000;2023-04-25T12:24:52;1.50;;;0.90;;
48777;SDS011;34578;0.000;0.000;2023-04-25T12:29:54;1.10;;;1.00;;
48777;SDS011;34578;0.000;0.000;2023-04-25T12:34:56;5.97;;;1.27;;
48777;SDS011;34578;0.000;0.000;2023-04-25T12:39:56;4.00;;;1.13;;
48777;SDS011;34578;0.000;0.000;2023-04-25T12:44:56;1.83;;;0.90;;
48777;SDS011;34578;0.000;0.000;2023-04-25T12:49:57;3.47;;;1.10;;
48777;SDS011;34578;0.000;0.000;2023-04-25T12:54:57;3.43;;;1.03;;
48777;SDS011;34578;0.000;0.000;2023-04-25T12:59:58;5.13;;;1.10;;
48777;SDS011;34578;0.000;0.000;2023-04-25T13:04:58;7.63;;;1.17;;
48777;SDS011;34578;0.000;0.000;2023-04-25T13:09:59;2.42;;;1.17;;
48777;SDS011;34578;0.000;0.000;2023-04-25T13:15:00;3.50;;;1.30;;
48777;SDS011;34578;0.000;0.000;2023-04-25T13:20:00;15.27;;;1.97;;
48777;SDS011;34578;0.000;0.000;2023-04-25T13:25:01;9.47;;;1.63;;
48777;SDS011;34578;0.000;0.000;2023-04-25T13:30:02;11.77;;;1.67;;
48777;SDS011;34578;0.000;0.000;2023-04-25T13:35:08;6.20;;;2.40;;
48777;SDS011;34578;0.000;0.000;2023-04-25T13:40:10;7.05;;;1.95;;
48777;SDS011;34578;0.000;0.000;2023-04-25T13:45:11;10.75;;;2.83;;
48777;SDS011;34578;0.000;0.000;2023-04-25T13:50:11;5.17;;;1.70;;
48777;SDS011;34578;0.000;0.000;2023-04-25T13:55:13;5.57;;;1.58;;
48777;SDS011;34578;0.000;0.000;2023-04-25T14:00:14;3.07;;;1.47;;
48777;SDS011;34578;0.000;0.000;2023-04-25T14:05:15;6.93;;;1.58;;
48777;SDS011;34578;0.000;0.000;2023-04-25T14:10:15;2.45;;;1.30;;
48777;SDS011;34578;0.000;0.000;2023-04-25T14:15:16;2.77;;;1.37;;
48777;SDS011;34578;0.000;0.000;2023-04-25T14:20:16;5.63;;;1.52;;
48777;SDS011;34578;0.000;0.000;2023-04-25T14:25:20;5.85;;;2.40;;
48777;SDS011;34578;0.000;0.000;2023-04-25T14:30:21;2.65;;;1.35;;
48777;SDS011;34578;0.000;0.000;2023-04-25T14:35:22;7.00;;;2.60;;
48777;SDS011;34578;0.000;0.000;2023-04-25T14:40:22;9.23;;;2.88;;
48777;SDS011;34578;0.000;0.000;2023-04-25T14:45:23;7.30;;;2.23;;
48777;SDS011;34578;0.000;0.000;2023-04-25T14:50:24;15.40;;;4.50;;
48777;SDS011;34578;0.000;0.000;2023-04-25T14:55:25;21.23;;;4.53;;
48777;SDS011;34578;0.000;0.000;2023-04-25T15:00:25;19.03;;;4.00;;
48777;SDS011;34578;0.000;0.000;2023-04-25T15:05:26;9.27;;;3.60;;
48777;SDS011;34578;0.000;0.000;2023-04-25T15:10:27;5.63;;;2.95;;
48777;SDS011;34578;0.000;0.000;2023-04-25T15:15:28;4.38;;;2.80;;
48777;SDS011;34578;0.000;0.000;2023-04-25T15:20:29;3.92;;;2.17;;
48777;SDS011;34578;0.000;0.000;2023-04-25T15:25:30;9.52;;;3.45;;
48777;SDS011;34578;0.000;0.000;2023-04-25T15:30:30;4.47;;;2.20;;
48777;SDS011;34578;0.000;0.000;2023-04-25T15:35:30;4.10;;;2.73;;
48777;SDS011;34578;0.000;0.000;2023-04-25T15:40:31;7.70;;;2.40;;
48777;SDS011;34578;0.000;0.000;2023-04-25T15:45:31;5.13;;;2.20;;
48777;SDS011;34578;0.000;0.000;2023-04-25T15:50:32;7.00;;;2.35;;
48777;SDS011;34578;0.000;0.000;2023-04-25T15:55:32;6.50;;;2.27;;
48777;SDS011;34578;0.000;0.000;2023-04-25T16:00:33;8.70;;;3.25;;
48777;SDS011;34578;0.000;0.000;2023-04-25T16:05:35;7.70;;;3.25;;
48777;SDS011;34578;0.000;0.000;2023-04-25T16:10:36;6.80;;;3.60;;
48777;SDS011;34578;0.000;0.000;2023-04-25T16:15:37;3.53;;;2.83;;
48777;SDS011;34578;0.000;0.000;2023-04-25T16:20:38;3.80;;;1.88;;
48777;SDS011;34578;0.000;0.000;2023-04-25T16:25:39;4.05;;;2.72;;
48777;SDS011;34578;0.000;0.000;2023-04-25T16:30:40;3.45;;;2.10;;
48777;SDS011;34578;0.000;0.000;2023-04-25T16:35:40;6.25;;;2.40;;
48777;SDS011;34578;0.000;0.000;2023-04-25T16:40:40;5.30;;;2.37;;
48777;SDS011;34578;0.000;0.000;2023-04-25T16:45:41;4.73;;;2.20;;
48777;SDS011;34578;0.000;0.000;2023-04-25T16:50:41;4.78;;;2.53;;
48777;SDS011;34578;0.000;0.000;2023-04-25T16:55:41;5.40;;;2.20;;
48777;SDS011;34578;0.000;0.000;2023-04-25T17:00:42;2.70;;;1.97;;
48777;SDS011;34578;0.000;0.000;2023-04-25T17:05:42;6.68;;;2.22;;
48777;SDS011;34578;0.000;0.000;2023-04-25T17:10:43;10.68;;;2.53;;
48777;SDS011;34578;0.000;0.000;2023-04-25T17:15:43;9.75;;;4.20;;
48777;SDS011;34578;0.000;0.000;2023-04-25T17:20:44;8.40;;;4.07;;
48777;SDS011;34578;0.000;0.000;2023-04-25T17:25:45;5.00;;;2.13;;
48777;SDS011;34578;0.000;0.000;2023-04-25T17:30:45;6.85;;;2.85;;
48777;SDS011;34578;0.000;0.000;2023-04-25T17:35:46;10.13;;;2.87;;
48777;SDS011;34578;0.000;0.000;2023-04-25T17:40:46;5.03;;;2.05;;
48777;SDS011;34578;0.000;0.000;2023-04-25T17:45:47;4.03;;;2.57;;
48777;SDS011;34578;0.000;0.000;2023-04-25T17:50:47;13.37;;;3.40;;
48777;SDS011;34578;0.000;0.000;2023-04-25T17:55:48;9.07;;;2.78;;
48777;SDS011;34578;0.000;0.000;2023-04-25T18:00:49;5.68;;;2.97;;
48777;SDS011;34578;0.000;0.000;2023-04-25T18:05:50;6.68;;;2.97;;
48777;SDS011;34578;0.000;0.000;2023-04-25T18:10:53;4.97;;;2.20;;
48777;SDS011;34578;0.000;0.000;2023-04-25T18:15:53;8.35;;;2.60;;
48777;SDS011;34578;0.000;0.000;2023-04-25T18:20:55;4.13;;;1.73;;
48777;SDS011;34578;0.000;0.000;2023-04-25T18:25:55;10.10;;;3.03;;
48777;SDS011;34578;0.000;0.000;2023-04-25T18:30:56;12.20;;;3.73;;
48777;SDS011;34578;0.000;0.000;2023-04-25T18:35:56;9.55;;;3.30;;
48777;SDS011;34578;0.000;0.000;2023-04-25T18:40:59;6.28;;;3.05;;
48777;SDS011;34578;0.000;0.000;2023-04-25T18:46:00;6.70;;;2.37;;
48777;SDS011;34578;0.000;0.000;2023-04-25T18:51:00;4.80;;;2.97;;
48777;SDS011;34578;0.000;0.000;2023-04-25T18:56:01;3.83;;;2.53;;
48777;SDS011;34578;0.000;0.000;2023-04-25T19:01:01;6.57;;;3.23;;
48777;SDS011;34578;0.000;0.000;2023-04-25T19:06:03;4.30;;;2.22;;
48777;SDS011;34578;0.000;0.000;2023-04-25T19:11:04;4.28;;;2.05;;
48777;SDS011;34578;0.000;0.000;2023-04-25T19:16:05;5.80;;;2.63;;
48777;SDS011;34578;0.000;0.000;2023-04-25T19:21:06;4.63;;;1.95;;
48777;SDS011;34578;0.000;0.000;2023-04-25T19:26:07;4.45;;;2.05;;
48777;SDS011;34578;0.000;0.000;2023-04-25T19:31:08;3.65;;;1.60;;
48777;SDS011;34578;0.000;0.000;2023-04-25T19:36:08;4.63;;;2.93;;
48777;SDS011;34578;0.000;0.000;2023-04-25T19:41:08;5.93;;;3.53;;
48777;SDS011;34578;0.000;0.000;2023-04-25T19:46:09;6.80;;;3.10;;
48777;SDS011;34578;0.000;0.000;2023-04-25T19:51:09;6.38;;;2.97;;
48777;SDS011;34578;0.000;0.000;2023-04-25T19:56:09;3.57;;;2.30;;
48777;SDS011;34578;0.000;0.000;2023-04-25T20:01:10;4.97;;;2.23;;
48777;SDS011;34578;0.000;0.000;2023-04-25T20:06:10;5.15;;;2.30;;
48777;SDS011;34578;0.000;0.000;2023-04-25T20:11:11;4.95;;;2.33;;
48777;SDS011;34578;0.000;0.000;2023-04-25T20:16:11;4.40;;;2.03;;
48777;SDS011;34578;0.000;0.000;2023-04-25T20:21:12;3.10;;;1.85;;
48777;SDS011;34578;0.000;0.000;2023-04-25T20:26:13;3.25;;;2.45;;
48777;SDS011;34578;0.000;0.000;2023-04-25T20:31:14;3.92;;;2.00;;
48777;SDS011;34578;0.000;0.000;2023-04-25T20:36:16;3.58;;;1.95;;
48777;SDS011;34578;0.000;0.000;2023-04-25T20:41:18;2.67;;;1.85;;
48777;SDS011;34578;0.000;0.000;2023-04-25T20:46:19;7.07;;;2.22;;
48777;SDS011;34578;0.000;0.000;2023-04-25T20:51:20;6.50;;;3.20;;
48777;SDS011;34578;0.000;0.000;2023-04-25T20:56:20;4.85;;;2.80;;
48777;SDS011;34578;0.000;0.000;2023-04-25T21:01:21;5.77;;;3.17;;
48777;SDS011;34578;0.000;0.000;2023-04-25T21:06:21;5.03;;;2.45;;
48777;SDS011;34578;0.000;0.000;2023-04-25T21:11:22;4.27;;;2.10;;
48777;SDS011;34578;0.000;0.000;2023-04-25T21:16:22;3.67;;;1.70;;
48777;SDS011;34578;0.000;0.000;2023-04-25T21:21:22;2.40;;;1.87;;
48777;SDS011;34578;0.000;0.000;2023-04-25T21:26:23;2.60;;;1.70;;
48777;SDS011;34578;0.000;0.000;2023-04-25T21:31:24;3.92;;;1.88;;
48777;SDS011;34578;0.000;0.000;2023-04-25T21:36:25;4.22;;;1.52;;
48777;SDS011;34578;0.000;0.000;2023-04-25T21:41:26;2.83;;;1.67;;
48777;SDS011;34578;0.000;0.000;2023-04-25T21:46:27;1.95;;;1.20;;
48777;SDS011;34578;0.000;0.000;2023-04-25T21:51:27;1.67;;;1.10;;
48777;SDS011;34578;0.000;0.000;2023-04-25T21:56:28;1.50;;;1.30;;
48777;SDS011;34578;0.000;0.000;2023-04-25T22:01:28;5.07;;;2.53;;
48777;SDS011;34578;0.000;0.000;2023-04-25T22:06:28;5.00;;;2.63;;
48777;SDS011;34578;0.000;0.000;2023-04-25T22:11:29;3.87;;;2.60;;
48777;SDS011;34578;0.000;0.000;2023-04-25T22:16:29;4.73;;;2.03;;
48777;SDS011;34578;0.000;0.000;2023-04-25T22:21:29;3.97;;;1.90;;
48777;SDS011;34578;0.000;0.000;2023-04-25T22:26:30;2.50;;;1.48;;
48777;SDS011;34578;0.000;0.000;2023-04-25T22:31:32;1.70;;;1.55;;
48777;SDS011;34578;0.000;0.000;2023-04-25T22:36:33;2.22;;;1.77;;
48777;SDS011;34578;0.000;0.000;2023-04-25T22:41:34;1.93;;;1.37;;
48777;SDS011;34578;0.000;0.000;2023-04-25T22:46:34;2.07;;;1.20;;
48777;SDS011;34578;0.000;0.000;2023-04-25T22:51:34;3.43;;;1.10;;
48777;SDS011;34578;0.000;0.000;2023-04-25T22:56:36;2.10;;;1.27;;
48777;SDS011;34578;0.000;0.000;2023-04-25T23:01:36;2.70;;;1.00;;
48777;SDS011;34578;0.000;0.000;2023-04-25T23:06:37;1.73;;;1.10;;
48777;SDS011;34578;0.000;0.000;2023-04-25T23:11:40;3.45;;;1.63;;
48777;SDS011;34578;0.000;0.000;2023-04-25T23:16:41;2.90;;;2.10;;
48777;SDS011;34578;0.000;0.000;2023-04-25T23:21:41;2.97;;;2.10;;
48777;SDS011;34578;0.000;0.000;2023-04-25T23:26:42;3.65;;;2.25;;
48777;SDS011;34578;0.000;0.000;2023-04-25T23:31:42;2.43;;;2.00;;
48777;SDS011;34578;0.000;0.000;2023-04-25T23:36:42;2.33;;;1.50;;
48777;SDS011;34578;0.000;0.000;2023-04-25T23:41:43;2.63;;;2.00;;
48777;SDS011;34578;0.000;0.000;2023-04-25T23:46:43;2.47;;;1.67;;
48777;SDS011;34578;0.000;0.000;2023-04-25T23:51:43;1.42;;;1.27;;
48777;SDS011;34578;0.000;0.000;2023-04-25T23:56:44;1.67;;;1.27;;
